sensor_id;sensor_type;location;lat;lon;timestamp;P1;durP1;ratioP1;P2;durP2;ratioP2
18661;SDS011;61528;49.456;11.098;2023-05-08T00:00:28;8.27;;;5.17;;
18661;SDS011;61528;49.456;11.098;2023-05-08T00:02:55;5.20;;;4.80;;
18661;SDS011;61528;49.456;11.098;2023-05-08T00:05:21;5.40;;;4.90;;
18661;SDS011;61528;49.456;11.098;2023-05-08T00:07:47;5.40;;;4.90;;
18661;SDS011;61528;49.456;11.098;2023-05-08T00:10:15;5.10;;;4.70;;
18661;SDS011;61528;49.456;11.098;2023-05-08T00:12:41;5.27;;;4.77;;
18661;SDS011;61528;49.456;11.098;2023-05-08T00:15:08;5.53;;;4.80;;
18661;SDS011;61528;49.456;11.098;2023-05-08T00:17:34;5.77;;;5.20;;
18661;SDS011;61528;49.456;11.098;2023-05-08T00:20:01;5.13;;;4.73;;
18661;SDS011;61528;49.456;11.098;2023-05-08T00:22:27;5.50;;;5.00;;
18661;SDS011;61528;49.456;11.098;2023-05-08T00:24:53;5.40;;;4.97;;
18661;SDS011;61528;49.456;11.098;2023-05-08T00:27:19;5.67;;;5.17;;
18661;SDS011;61528;49.456;11.098;2023-05-08T00:29:47;5.43;;;4.93;;
18661;SDS011;61528;49.456;11.098;2023-05-08T00:32:13;5.57;;;5.07;;
18661;SDS011;61528;49.456;11.098;2023-05-08T00:34:40;5.73;;;5.23;;
18661;SDS011;61528;49.456;11.098;2023-05-08T00:37:06;5.10;;;4.70;;
18661;SDS011;61528;49.456;11.098;2023-05-08T00:39:32;5.80;;;5.00;;
18661;SDS011;61528;49.456;11.098;2023-05-08T00:41:58;5.73;;;5.07;;
18661;SDS011;61528;49.456;11.098;2023-05-08T00:44:25;6.00;;;5.40;;
18661;SDS011;61528;49.456;11.098;2023-05-08T00:46:51;5.93;;;5.43;;
18661;SDS011;61528;49.456;11.098;2023-05-08T00:49:17;6.03;;;5.53;;
18661;SDS011;61528;49.456;11.098;2023-05-08T00:51:46;5.60;;;5.10;;
18661;SDS011;61528;49.456;11.098;2023-05-08T00:54:15;5.30;;;4.80;;
18661;SDS011;61528;49.456;11.098;2023-05-08T00:56:42;5.30;;;4.80;;
18661;SDS011;61528;49.456;11.098;2023-05-08T00:59:10;5.90;;;5.40;;
18661;SDS011;61528;49.456;11.098;2023-05-08T01:01:37;5.13;;;4.73;;
18661;SDS011;61528;49.456;11.098;2023-05-08T01:04:03;6.10;;;5.60;;
18661;SDS011;61528;49.456;11.098;2023-05-08T01:06:30;5.37;;;4.87;;
18661;SDS011;61528;49.456;11.098;2023-05-08T01:09:02;5.67;;;5.17;;
18661;SDS011;61528;49.456;11.098;2023-05-08T01:14:06;5.60;;;5.13;;
18661;SDS011;61528;49.456;11.098;2023-05-08T01:16:40;5.17;;;4.77;;
18661;SDS011;61528;49.456;11.098;2023-05-08T01:19:14;5.27;;;4.87;;
18661;SDS011;61528;49.456;11.098;2023-05-08T01:21:48;5.83;;;5.33;;
18661;SDS011;61528;49.456;11.098;2023-05-08T01:30:03;5.43;;;4.93;;
18661;SDS011;61528;49.456;11.098;2023-05-08T01:32:35;5.57;;;5.07;;
18661;SDS011;61528;49.456;11.098;2023-05-08T01:37:56;5.00;;;4.60;;
18661;SDS011;61528;49.456;11.098;2023-05-08T01:45:22;5.53;;;5.00;;
18661;SDS011;61528;49.456;11.098;2023-05-08T01:47:52;5.20;;;4.70;;
18661;SDS011;61528;49.456;11.098;2023-05-08T01:50:24;5.33;;;4.93;;
18661;SDS011;61528;49.456;11.098;2023-05-08T01:52:52;5.43;;;5.03;;
18661;SDS011;61528;49.456;11.098;2023-05-08T01:55:25;5.27;;;4.87;;
18661;SDS011;61528;49.456;11.098;2023-05-08T01:57:53;5.60;;;5.10;;
18661;SDS011;61528;49.456;11.098;2023-05-08T02:00:21;5.00;;;4.60;;
18661;SDS011;61528;49.456;11.098;2023-05-08T02:02:48;4.83;;;4.43;;
18661;SDS011;61528;49.456;11.098;2023-05-08T02:05:16;5.10;;;4.70;;
18661;SDS011;61528;49.456;11.098;2023-05-08T02:07:43;5.40;;;4.90;;
18661;SDS011;61528;49.456;11.098;2023-05-08T02:10:11;5.17;;;4.77;;
18661;SDS011;61528;49.456;11.098;2023-05-08T02:12:37;5.03;;;4.63;;
18661;SDS011;61528;49.456;11.098;2023-05-08T02:15:04;4.90;;;4.50;;
18661;SDS011;61528;49.456;11.098;2023-05-08T02:17:32;5.47;;;5.07;;
18661;SDS011;61528;49.456;11.098;2023-05-08T02:20:01;4.77;;;4.37;;
18661;SDS011;61528;49.456;11.098;2023-05-08T02:22:27;5.37;;;4.83;;
18661;SDS011;61528;49.456;11.098;2023-05-08T02:24:54;5.30;;;4.80;;
18661;SDS011;61528;49.456;11.098;2023-05-08T02:27:22;5.10;;;4.70;;
18661;SDS011;61528;49.456;11.098;2023-05-08T02:29:50;5.10;;;4.70;;
18661;SDS011;61528;49.456;11.098;2023-05-08T02:32:17;6.10;;;5.23;;
18661;SDS011;61528;49.456;11.098;2023-05-08T02:34:45;5.30;;;4.80;;
18661;SDS011;61528;49.456;11.098;2023-05-08T02:37:11;5.10;;;4.70;;
18661;SDS011;61528;49.456;11.098;2023-05-08T02:39:38;5.53;;;5.03;;
18661;SDS011;61528;49.456;11.098;2023-05-08T02:42:05;5.37;;;4.87;;
18661;SDS011;61528;49.456;11.098;2023-05-08T02:44:32;5.90;;;5.40;;
18661;SDS011;61528;49.456;11.098;2023-05-08T02:46:59;6.10;;;5.10;;
18661;SDS011;61528;49.456;11.098;2023-05-08T02:49:32;5.70;;;5.07;;
18661;SDS011;61528;49.456;11.098;2023-05-08T02:52:03;5.60;;;5.10;;
18661;SDS011;61528;49.456;11.098;2023-05-08T02:57:27;5.30;;;4.80;;
18661;SDS011;61528;49.456;11.098;2023-05-08T02:59:56;5.60;;;5.10;;
18661;SDS011;61528;49.456;11.098;2023-05-08T03:04:54;5.67;;;5.23;;
18661;SDS011;61528;49.456;11.098;2023-05-08T03:07:22;5.90;;;5.40;;
18661;SDS011;61528;49.456;11.098;2023-05-08T03:09:52;5.60;;;5.10;;
18661;SDS011;61528;49.456;11.098;2023-05-08T03:12:21;5.83;;;5.30;;
18661;SDS011;61528;49.456;11.098;2023-05-08T03:15:22;5.30;;;4.80;;
18661;SDS011;61528;49.456;11.098;2023-05-08T03:17:40;5.70;;;5.13;;
18661;SDS011;61528;49.456;11.098;2023-05-08T03:20:08;7.17;;;5.27;;
18661;SDS011;61528;49.456;11.098;2023-05-08T03:22:38;5.37;;;4.90;;
18661;SDS011;61528;49.456;11.098;2023-05-08T03:25:05;6.27;;;5.70;;
18661;SDS011;61528;49.456;11.098;2023-05-08T03:27:34;6.70;;;5.67;;
18661;SDS011;61528;49.456;11.098;2023-05-08T03:30:01;6.27;;;5.67;;
18661;SDS011;61528;49.456;11.098;2023-05-08T03:32:29;6.10;;;5.60;;
18661;SDS011;61528;49.456;11.098;2023-05-08T03:34:58;6.20;;;5.70;;
18661;SDS011;61528;49.456;11.098;2023-05-08T03:37:27;6.73;;;6.13;;
18661;SDS011;61528;49.456;11.098;2023-05-08T03:39:56;6.43;;;5.60;;
18661;SDS011;61528;49.456;11.098;2023-05-08T03:42:22;8.97;;;6.30;;
18661;SDS011;61528;49.456;11.098;2023-05-08T03:44:49;7.23;;;6.07;;
18661;SDS011;61528;49.456;11.098;2023-05-08T03:47:19;7.00;;;6.40;;
18661;SDS011;61528;49.456;11.098;2023-05-08T03:49:46;6.93;;;6.20;;
18661;SDS011;61528;49.456;11.098;2023-05-08T03:52:13;6.77;;;6.17;;
18661;SDS011;61528;49.456;11.098;2023-05-08T03:54:39;7.20;;;6.50;;
18661;SDS011;61528;49.456;11.098;2023-05-08T03:57:05;7.63;;;6.80;;
18661;SDS011;61528;49.456;11.098;2023-05-08T04:00:18;7.43;;;6.73;;
18661;SDS011;61528;49.456;11.098;2023-05-08T04:02:20;7.83;;;6.30;;
18661;SDS011;61528;49.456;11.098;2023-05-08T04:04:52;7.10;;;6.50;;
18661;SDS011;61528;49.456;11.098;2023-05-08T04:10:32;6.97;;;6.37;;
18661;SDS011;61528;49.456;11.098;2023-05-08T04:13:05;8.80;;;6.73;;
18661;SDS011;61528;49.456;11.098;2023-05-08T04:15:33;7.00;;;6.30;;
18661;SDS011;61528;49.456;11.098;2023-05-08T04:18:03;7.23;;;6.53;;
18661;SDS011;61528;49.456;11.098;2023-05-08T04:20:31;7.47;;;6.77;;
18661;SDS011;61528;49.456;11.098;2023-05-08T04:22:57;7.23;;;6.53;;
18661;SDS011;61528;49.456;11.098;2023-05-08T04:25:24;7.70;;;6.80;;
18661;SDS011;61528;49.456;11.098;2023-05-08T06:25:29;7.37;;;6.67;;
18661;SDS011;61528;49.456;11.098;2023-05-08T06:27:55;7.50;;;6.60;;
18661;SDS011;61528;49.456;11.098;2023-05-08T06:30:21;8.37;;;6.37;;
18661;SDS011;61528;49.456;11.098;2023-05-08T06:32:48;7.17;;;6.43;;
18661;SDS011;61528;49.456;11.098;2023-05-08T06:35:14;7.10;;;6.40;;
18661;SDS011;61528;49.456;11.098;2023-05-08T06:37:42;7.90;;;7.07;;
18661;SDS011;61528;49.456;11.098;2023-05-08T06:40:09;8.33;;;6.87;;
18661;SDS011;61528;49.456;11.098;2023-05-08T06:42:35;7.77;;;6.97;;
18661;SDS011;61528;49.456;11.098;2023-05-08T06:45:02;7.23;;;6.50;;
18661;SDS011;61528;49.456;11.098;2023-05-08T06:47:28;8.93;;;6.97;;
18661;SDS011;61528;49.456;11.098;2023-05-08T06:49:54;9.40;;;7.07;;
18661;SDS011;61528;49.456;11.098;2023-05-08T06:52:20;7.50;;;6.70;;
18661;SDS011;61528;49.456;11.098;2023-05-08T06:54:49;7.70;;;7.00;;
18661;SDS011;61528;49.456;11.098;2023-05-08T06:57:15;7.53;;;6.67;;
18661;SDS011;61528;49.456;11.098;2023-05-08T06:59:41;9.57;;;7.60;;
18661;SDS011;61528;49.456;11.098;2023-05-08T07:02:07;11.30;;;7.87;;
18661;SDS011;61528;49.456;11.098;2023-05-08T07:04:34;10.27;;;7.37;;
18661;SDS011;61528;49.456;11.098;2023-05-08T07:07:01;7.87;;;6.97;;
18661;SDS011;61528;49.456;11.098;2023-05-08T07:09:27;12.10;;;6.97;;
18661;SDS011;61528;49.456;11.098;2023-05-08T07:11:53;8.53;;;6.87;;
18661;SDS011;61528;49.456;11.098;2023-05-08T07:14:23;7.23;;;6.53;;
18661;SDS011;61528;49.456;11.098;2023-05-08T07:16:53;6.90;;;6.20;;
18661;SDS011;61528;49.456;11.098;2023-05-08T07:19:19;7.83;;;7.03;;
18661;SDS011;61528;49.456;11.098;2023-05-08T07:21:46;6.87;;;6.27;;
18661;SDS011;61528;49.456;11.098;2023-05-08T07:24:13;7.93;;;7.00;;
18661;SDS011;61528;49.456;11.098;2023-05-08T07:26:39;8.57;;;6.73;;
18661;SDS011;61528;49.456;11.098;2023-05-08T07:29:05;7.00;;;6.30;;
18661;SDS011;61528;49.456;11.098;2023-05-08T07:31:32;6.37;;;5.77;;
18661;SDS011;61528;49.456;11.098;2023-05-08T07:33:58;6.60;;;6.10;;
18661;SDS011;61528;49.456;11.098;2023-05-08T07:36:24;7.77;;;6.10;;
18661;SDS011;61528;49.456;11.098;2023-05-08T07:38:51;8.10;;;5.83;;
18661;SDS011;61528;49.456;11.098;2023-05-08T07:41:17;7.13;;;5.90;;
18661;SDS011;61528;49.456;11.098;2023-05-08T07:43:43;6.47;;;5.87;;
18661;SDS011;61528;49.456;11.098;2023-05-08T07:46:15;6.10;;;5.50;;
18661;SDS011;61528;49.456;11.098;2023-05-08T07:48:41;6.23;;;5.73;;
18661;SDS011;61528;49.456;11.098;2023-05-08T07:51:08;7.80;;;6.77;;
18661;SDS011;61528;49.456;11.098;2023-05-08T07:53:35;7.27;;;6.57;;
18661;SDS011;61528;49.456;11.098;2023-05-08T07:56:01;6.60;;;6.00;;
18661;SDS011;61528;49.456;11.098;2023-05-08T07:58:28;7.57;;;6.90;;
18661;SDS011;61528;49.456;11.098;2023-05-08T08:00:54;6.67;;;6.07;;
18661;SDS011;61528;49.456;11.098;2023-05-08T08:03:20;7.10;;;6.37;;
18661;SDS011;61528;49.456;11.098;2023-05-08T08:05:46;8.90;;;6.63;;
18661;SDS011;61528;49.456;11.098;2023-05-08T08:08:12;6.93;;;6.33;;
18661;SDS011;61528;49.456;11.098;2023-05-08T08:10:40;7.13;;;6.53;;
18661;SDS011;61528;49.456;11.098;2023-05-08T08:13:06;6.93;;;6.33;;
18661;SDS011;61528;49.456;11.098;2023-05-08T08:15:32;7.83;;;6.90;;
18661;SDS011;61528;49.456;11.098;2023-05-08T08:17:58;7.43;;;6.73;;
18661;SDS011;61528;49.456;11.098;2023-05-08T08:20:25;8.17;;;6.80;;
18661;SDS011;61528;49.456;11.098;2023-05-08T08:22:51;7.47;;;6.43;;
18661;SDS011;61528;49.456;11.098;2023-05-08T08:25:18;7.83;;;6.87;;
18661;SDS011;61528;49.456;11.098;2023-05-08T08:27:44;7.40;;;6.70;;
18661;SDS011;61528;49.456;11.098;2023-05-08T08:30:11;7.17;;;6.53;;
18661;SDS011;61528;49.456;11.098;2023-05-08T08:32:37;7.33;;;6.63;;
18661;SDS011;61528;49.456;11.098;2023-05-08T08:35:03;7.67;;;6.97;;
18661;SDS011;61528;49.456;11.098;2023-05-08T08:37:29;7.90;;;6.60;;
18661;SDS011;61528;49.456;11.098;2023-05-08T08:39:56;7.50;;;6.73;;
18661;SDS011;61528;49.456;11.098;2023-05-08T08:42:22;8.07;;;7.30;;
18661;SDS011;61528;49.456;11.098;2023-05-08T08:44:48;7.83;;;6.93;;
18661;SDS011;61528;49.456;11.098;2023-05-08T08:47:15;7.37;;;6.67;;
18661;SDS011;61528;49.456;11.098;2023-05-08T08:49:42;7.00;;;6.40;;
18661;SDS011;61528;49.456;11.098;2023-05-08T08:52:29;7.10;;;6.33;;
18661;SDS011;61528;49.456;11.098;2023-05-08T08:54:57;7.53;;;6.87;;
18661;SDS011;61528;49.456;11.098;2023-05-08T08:57:26;10.00;;;6.50;;
18661;SDS011;61528;49.456;11.098;2023-05-08T08:59:53;7.27;;;6.57;;
18661;SDS011;61528;49.456;11.098;2023-05-08T09:02:20;8.03;;;7.33;;
18661;SDS011;61528;49.456;11.098;2023-05-08T09:04:50;8.80;;;7.13;;
18661;SDS011;61528;49.456;11.098;2023-05-08T09:07:16;7.97;;;7.20;;
18661;SDS011;61528;49.456;11.098;2023-05-08T09:09:42;7.47;;;6.77;;
18661;SDS011;61528;49.456;11.098;2023-05-08T09:12:09;7.57;;;6.87;;
18661;SDS011;61528;49.456;11.098;2023-05-08T09:14:35;7.50;;;6.80;;
18661;SDS011;61528;49.456;11.098;2023-05-08T09:17:01;10.90;;;6.80;;
18661;SDS011;61528;49.456;11.098;2023-05-08T09:19:28;8.13;;;6.87;;
18661;SDS011;61528;49.456;11.098;2023-05-08T09:21:57;7.20;;;6.50;;
18661;SDS011;61528;49.456;11.098;2023-05-08T09:24:24;9.50;;;7.13;;
18661;SDS011;61528;49.456;11.098;2023-05-08T09:26:52;7.40;;;6.63;;
18661;SDS011;61528;49.456;11.098;2023-05-08T09:29:19;9.87;;;6.50;;
18661;SDS011;61528;49.456;11.098;2023-05-08T09:31:50;9.43;;;6.87;;
18661;SDS011;61528;49.456;11.098;2023-05-08T09:36:51;8.23;;;7.27;;
18661;SDS011;61528;49.456;11.098;2023-05-08T09:39:21;7.77;;;6.53;;
18661;SDS011;61528;49.456;11.098;2023-05-08T09:42:01;7.03;;;6.33;;
18661;SDS011;61528;49.456;11.098;2023-05-08T09:44:28;6.73;;;6.13;;
18661;SDS011;61528;49.456;11.098;2023-05-08T09:47:09;7.67;;;6.87;;
18661;SDS011;61528;49.456;11.098;2023-05-08T09:49:36;7.87;;;6.97;;
18661;SDS011;61528;49.456;11.098;2023-05-08T09:52:04;7.97;;;7.23;;
18661;SDS011;61528;49.456;11.098;2023-05-08T09:54:31;8.03;;;6.83;;
18661;SDS011;61528;49.456;11.098;2023-05-08T09:56:57;7.40;;;6.70;;
18661;SDS011;61528;49.456;11.098;2023-05-08T09:59:24;7.70;;;6.90;;
18661;SDS011;61528;49.456;11.098;2023-05-08T10:01:51;8.63;;;7.83;;
18661;SDS011;61528;49.456;11.098;2023-05-08T10:04:17;7.20;;;6.50;;
18661;SDS011;61528;49.456;11.098;2023-05-08T10:06:54;8.00;;;7.30;;
18661;SDS011;61528;49.456;11.098;2023-05-08T10:09:20;7.77;;;6.97;;
18661;SDS011;61528;49.456;11.098;2023-05-08T10:11:50;7.07;;;6.47;;
18661;SDS011;61528;49.456;11.098;2023-05-08T10:14:16;7.60;;;6.90;;
18661;SDS011;61528;49.456;11.098;2023-05-08T10:16:44;6.87;;;6.27;;
18661;SDS011;61528;49.456;11.098;2023-05-08T10:19:12;7.43;;;6.83;;
18661;SDS011;61528;49.456;11.098;2023-05-08T10:21:39;7.20;;;6.53;;
18661;SDS011;61528;49.456;11.098;2023-05-08T10:24:09;9.00;;;6.90;;
18661;SDS011;61528;49.456;11.098;2023-05-08T10:26:38;7.60;;;6.90;;
18661;SDS011;61528;49.456;11.098;2023-05-08T10:29:06;8.23;;;7.53;;
18661;SDS011;61528;49.456;11.098;2023-05-08T10:31:34;8.10;;;7.23;;
18661;SDS011;61528;49.456;11.098;2023-05-08T10:34:00;7.70;;;7.00;;
18661;SDS011;61528;49.456;11.098;2023-05-08T10:36:27;7.73;;;7.03;;
18661;SDS011;61528;49.456;11.098;2023-05-08T10:38:58;7.90;;;7.20;;
18661;SDS011;61528;49.456;11.098;2023-05-08T10:41:24;7.50;;;6.90;;
18661;SDS011;61528;49.456;11.098;2023-05-08T10:43:51;6.97;;;6.27;;
18661;SDS011;61528;49.456;11.098;2023-05-08T10:52:17;8.40;;;7.57;;
18661;SDS011;61528;49.456;11.098;2023-05-08T10:57:22;8.93;;;7.00;;
18661;SDS011;61528;49.456;11.098;2023-05-08T10:59:48;8.47;;;7.27;;
18661;SDS011;61528;49.456;11.098;2023-05-08T11:02:15;7.10;;;6.40;;
18661;SDS011;61528;49.456;11.098;2023-05-08T11:04:41;7.70;;;7.00;;
18661;SDS011;61528;49.456;11.098;2023-05-08T11:07:08;7.57;;;6.77;;
18661;SDS011;61528;49.456;11.098;2023-05-08T11:12:15;7.77;;;6.97;;
18661;SDS011;61528;49.456;11.098;2023-05-08T11:14:43;11.03;;;7.40;;
18661;SDS011;61528;49.456;11.098;2023-05-08T11:17:24;7.97;;;6.97;;
18661;SDS011;61528;49.456;11.098;2023-05-08T11:22:23;7.50;;;6.80;;
18661;SDS011;61528;49.456;11.098;2023-05-08T11:24:52;7.20;;;6.60;;
18661;SDS011;61528;49.456;11.098;2023-05-08T11:27:31;7.83;;;7.03;;
18661;SDS011;61528;49.456;11.098;2023-05-08T11:32:55;8.53;;;7.83;;
18661;SDS011;61528;49.456;11.098;2023-05-08T11:38:13;9.00;;;8.20;;
18661;SDS011;61528;49.456;11.098;2023-05-08T11:43:18;8.57;;;7.87;;
18661;SDS011;61528;49.456;11.098;2023-05-08T11:45:44;8.20;;;7.27;;
18661;SDS011;61528;49.456;11.098;2023-05-08T11:48:12;10.00;;;8.13;;
18661;SDS011;61528;49.456;11.098;2023-05-08T11:50:39;7.87;;;7.13;;
18661;SDS011;61528;49.456;11.098;2023-05-08T11:53:05;13.10;;;7.70;;
18661;SDS011;61528;49.456;11.098;2023-05-08T11:55:31;10.30;;;7.67;;
18661;SDS011;61528;49.456;11.098;2023-05-08T11:57:58;10.83;;;8.50;;
18661;SDS011;61528;49.456;11.098;2023-05-08T12:00:24;7.63;;;6.93;;
18661;SDS011;61528;49.456;11.098;2023-05-08T12:02:50;7.43;;;6.83;;
18661;SDS011;61528;49.456;11.098;2023-05-08T12:05:19;7.97;;;7.27;;
18661;SDS011;61528;49.456;11.098;2023-05-08T12:07:50;8.03;;;7.33;;
18661;SDS011;61528;49.456;11.098;2023-05-08T12:10:16;11.17;;;10.07;;
18661;SDS011;61528;49.456;11.098;2023-05-08T12:12:43;8.43;;;7.37;;
18661;SDS011;61528;49.456;11.098;2023-05-08T12:15:10;9.37;;;8.27;;
18661;SDS011;61528;49.456;11.098;2023-05-08T12:17:36;8.87;;;8.07;;
18661;SDS011;61528;49.456;11.098;2023-05-08T12:20:12;7.80;;;7.20;;
18661;SDS011;61528;49.456;11.098;2023-05-08T12:22:42;11.00;;;8.70;;
18661;SDS011;61528;49.456;11.098;2023-05-08T12:25:15;10.33;;;9.33;;
18661;SDS011;61528;49.456;11.098;2023-05-08T12:27:41;7.90;;;7.10;;
18661;SDS011;61528;49.456;11.098;2023-05-08T12:30:09;9.10;;;6.83;;
18661;SDS011;61528;49.456;11.098;2023-05-08T12:32:35;7.43;;;6.73;;
18661;SDS011;61528;49.456;11.098;2023-05-08T12:35:03;9.63;;;8.73;;
18661;SDS011;61528;49.456;11.098;2023-05-08T12:37:30;9.87;;;8.13;;
18661;SDS011;61528;49.456;11.098;2023-05-08T12:39:56;8.27;;;7.47;;
18661;SDS011;61528;49.456;11.098;2023-05-08T12:42:39;7.90;;;7.20;;
18661;SDS011;61528;49.456;11.098;2023-05-08T12:45:06;7.57;;;6.87;;
18661;SDS011;61528;49.456;11.098;2023-05-08T12:47:32;9.60;;;8.70;;
18661;SDS011;61528;49.456;11.098;2023-05-08T12:49:59;9.30;;;8.40;;
18661;SDS011;61528;49.456;11.098;2023-05-08T12:52:25;8.67;;;7.83;;
18661;SDS011;61528;49.456;11.098;2023-05-08T12:54:52;10.07;;;8.90;;
18661;SDS011;61528;49.456;11.098;2023-05-08T12:57:19;7.60;;;6.97;;
18661;SDS011;61528;49.456;11.098;2023-05-08T12:59:46;9.00;;;8.20;;
18661;SDS011;61528;49.456;11.098;2023-05-08T13:02:13;9.40;;;8.60;;
18661;SDS011;61528;49.456;11.098;2023-05-08T13:04:40;8.10;;;7.37;;
18661;SDS011;61528;49.456;11.098;2023-05-08T13:07:06;7.47;;;6.83;;
18661;SDS011;61528;49.456;11.098;2023-05-08T13:09:33;8.03;;;7.33;;
18661;SDS011;61528;49.456;11.098;2023-05-08T13:11:59;8.20;;;6.90;;
18661;SDS011;61528;49.456;11.098;2023-05-08T13:14:25;8.83;;;7.87;;
18661;SDS011;61528;49.456;11.098;2023-05-08T13:16:52;8.20;;;7.50;;
18661;SDS011;61528;49.456;11.098;2023-05-08T13:19:18;9.30;;;8.40;;
18661;SDS011;61528;49.456;11.098;2023-05-08T13:21:44;8.40;;;7.60;;
18661;SDS011;61528;49.456;11.098;2023-05-08T13:24:12;9.00;;;8.27;;
18661;SDS011;61528;49.456;11.098;2023-05-08T13:26:39;8.10;;;7.40;;
18661;SDS011;61528;49.456;11.098;2023-05-08T13:29:05;7.57;;;6.87;;
18661;SDS011;61528;49.456;11.098;2023-05-08T13:31:31;8.40;;;7.70;;
18661;SDS011;61528;49.456;11.098;2023-05-08T13:33:59;7.90;;;7.10;;
18661;SDS011;61528;49.456;11.098;2023-05-08T13:36:25;8.17;;;7.57;;
18661;SDS011;61528;49.456;11.098;2023-05-08T13:38:52;7.73;;;6.97;;
18661;SDS011;61528;49.456;11.098;2023-05-08T13:41:21;9.43;;;7.60;;
18661;SDS011;61528;49.456;11.098;2023-05-08T13:43:49;9.23;;;7.93;;
18661;SDS011;61528;49.456;11.098;2023-05-08T13:46:15;7.77;;;7.07;;
18661;SDS011;61528;49.456;11.098;2023-05-08T13:48:42;7.90;;;7.20;;
18661;SDS011;61528;49.456;11.098;2023-05-08T13:51:08;9.03;;;8.13;;
18661;SDS011;61528;49.456;11.098;2023-05-08T13:53:35;7.83;;;7.20;;
18661;SDS011;61528;49.456;11.098;2023-05-08T13:56:02;8.90;;;7.33;;
18661;SDS011;61528;49.456;11.098;2023-05-08T13:58:29;7.73;;;7.13;;
18661;SDS011;61528;49.456;11.098;2023-05-08T14:00:55;7.47;;;6.77;;
18661;SDS011;61528;49.456;11.098;2023-05-08T14:03:22;8.80;;;7.70;;
18661;SDS011;61528;49.456;11.098;2023-05-08T14:05:48;8.63;;;7.83;;
18661;SDS011;61528;49.456;11.098;2023-05-08T14:08:16;8.30;;;7.50;;
18661;SDS011;61528;49.456;11.098;2023-05-08T14:10:42;7.43;;;6.73;;
18661;SDS011;61528;49.456;11.098;2023-05-08T14:13:08;7.47;;;6.77;;
18661;SDS011;61528;49.456;11.098;2023-05-08T14:15:36;8.23;;;7.43;;
18661;SDS011;61528;49.456;11.098;2023-05-08T14:18:02;7.70;;;7.00;;
18661;SDS011;61528;49.456;11.098;2023-05-08T14:20:28;8.47;;;7.67;;
18661;SDS011;61528;49.456;11.098;2023-05-08T14:22:55;8.10;;;7.30;;
18661;SDS011;61528;49.456;11.098;2023-05-08T14:25:21;7.30;;;6.70;;
18661;SDS011;61528;49.456;11.098;2023-05-08T14:27:47;7.77;;;7.17;;
18661;SDS011;61528;49.456;11.098;2023-05-08T14:30:13;7.40;;;6.70;;
18661;SDS011;61528;49.456;11.098;2023-05-08T14:32:39;7.60;;;6.90;;
18661;SDS011;61528;49.456;11.098;2023-05-08T14:35:06;7.40;;;6.80;;
18661;SDS011;61528;49.456;11.098;2023-05-08T14:37:34;7.10;;;6.50;;
18661;SDS011;61528;49.456;11.098;2023-05-08T14:40:01;7.57;;;6.80;;
18661;SDS011;61528;49.456;11.098;2023-05-08T14:42:28;6.90;;;6.30;;
18661;SDS011;61528;49.456;11.098;2023-05-08T14:44:54;6.77;;;6.17;;
18661;SDS011;61528;49.456;11.098;2023-05-08T14:47:20;6.40;;;5.80;;
18661;SDS011;61528;49.456;11.098;2023-05-08T14:49:47;13.33;;;6.50;;
18661;SDS011;61528;49.456;11.098;2023-05-08T14:52:14;6.90;;;6.20;;
18661;SDS011;61528;49.456;11.098;2023-05-08T14:54:40;7.40;;;6.03;;
18661;SDS011;61528;49.456;11.098;2023-05-08T14:57:07;6.73;;;6.00;;
18661;SDS011;61528;49.456;11.098;2023-05-08T14:59:33;7.17;;;6.37;;
18661;SDS011;61528;49.456;11.098;2023-05-08T15:02:01;6.80;;;6.20;;
18661;SDS011;61528;49.456;11.098;2023-05-08T15:04:27;6.57;;;6.00;;
18661;SDS011;61528;49.456;11.098;2023-05-08T15:06:53;7.97;;;6.50;;
18661;SDS011;61528;49.456;11.098;2023-05-08T15:09:19;7.17;;;6.47;;
18661;SDS011;61528;49.456;11.098;2023-05-08T15:11:46;6.60;;;6.00;;
18661;SDS011;61528;49.456;11.098;2023-05-08T15:14:12;7.23;;;6.57;;
18661;SDS011;61528;49.456;11.098;2023-05-08T15:16:38;7.13;;;6.50;;
18661;SDS011;61528;49.456;11.098;2023-05-08T15:19:04;7.03;;;6.43;;
18661;SDS011;61528;49.456;11.098;2023-05-08T15:21:30;6.80;;;6.30;;
18661;SDS011;61528;49.456;11.098;2023-05-08T15:23:57;7.03;;;6.30;;
18661;SDS011;61528;49.456;11.098;2023-05-08T15:26:23;7.47;;;6.23;;
18661;SDS011;61528;49.456;11.098;2023-05-08T15:28:49;6.00;;;5.47;;
18661;SDS011;61528;49.456;11.098;2023-05-08T15:31:16;5.67;;;5.17;;
18661;SDS011;61528;49.456;11.098;2023-05-08T15:33:42;6.40;;;5.50;;
18661;SDS011;61528;49.456;11.098;2023-05-08T15:36:12;6.20;;;5.60;;
18661;SDS011;61528;49.456;11.098;2023-05-08T15:38:39;5.20;;;4.80;;
18661;SDS011;61528;49.456;11.098;2023-05-08T15:41:05;6.30;;;5.70;;
18661;SDS011;61528;49.456;11.098;2023-05-08T15:43:31;5.67;;;5.10;;
18661;SDS011;61528;49.456;11.098;2023-05-08T15:45:57;5.40;;;5.00;;
18661;SDS011;61528;49.456;11.098;2023-05-08T15:48:24;5.30;;;4.90;;
18661;SDS011;61528;49.456;11.098;2023-05-08T15:50:50;4.87;;;4.57;;
18661;SDS011;61528;49.456;11.098;2023-05-08T15:53:16;5.30;;;4.80;;
18661;SDS011;61528;49.456;11.098;2023-05-08T15:55:43;5.50;;;4.70;;
18661;SDS011;61528;49.456;11.098;2023-05-08T15:58:09;5.77;;;5.20;;
18661;SDS011;61528;49.456;11.098;2023-05-08T16:00:35;5.50;;;5.00;;
18661;SDS011;61528;49.456;11.098;2023-05-08T16:03:02;4.67;;;4.23;;
18661;SDS011;61528;49.456;11.098;2023-05-08T16:05:28;4.80;;;4.40;;
18661;SDS011;61528;49.456;11.098;2023-05-08T16:07:54;5.83;;;5.07;;
18661;SDS011;61528;49.456;11.098;2023-05-08T16:10:20;5.33;;;4.93;;
18661;SDS011;61528;49.456;11.098;2023-05-08T16:12:47;5.33;;;4.63;;
18661;SDS011;61528;49.456;11.098;2023-05-08T16:15:14;5.93;;;4.90;;
18661;SDS011;61528;49.456;11.098;2023-05-08T16:17:40;5.20;;;4.80;;
18661;SDS011;61528;49.456;11.098;2023-05-08T16:20:08;4.97;;;4.33;;
18661;SDS011;61528;49.456;11.098;2023-05-08T16:22:35;4.60;;;4.20;;
18661;SDS011;61528;49.456;11.098;2023-05-08T16:25:01;6.80;;;4.83;;
18661;SDS011;61528;49.456;11.098;2023-05-08T16:27:27;6.00;;;4.77;;
18661;SDS011;61528;49.456;11.098;2023-05-08T16:29:54;5.20;;;4.80;;
18661;SDS011;61528;49.456;11.098;2023-05-08T16:32:20;5.87;;;4.47;;
18661;SDS011;61528;49.456;11.098;2023-05-08T16:34:47;4.63;;;4.23;;
18661;SDS011;61528;49.456;11.098;2023-05-08T16:37:13;4.63;;;4.20;;
18661;SDS011;61528;49.456;11.098;2023-05-08T16:39:40;4.70;;;4.30;;
18661;SDS011;61528;49.456;11.098;2023-05-08T16:42:06;4.70;;;4.30;;
18661;SDS011;61528;49.456;11.098;2023-05-08T16:44:32;4.90;;;4.50;;
18661;SDS011;61528;49.456;11.098;2023-05-08T16:47:00;4.67;;;4.27;;
18661;SDS011;61528;49.456;11.098;2023-05-08T16:49:26;4.57;;;4.27;;
18661;SDS011;61528;49.456;11.098;2023-05-08T16:51:52;4.87;;;4.37;;
18661;SDS011;61528;49.456;11.098;2023-05-08T16:54:19;4.10;;;3.80;;
18661;SDS011;61528;49.456;11.098;2023-05-08T16:56:45;4.70;;;4.20;;
18661;SDS011;61528;49.456;11.098;2023-05-08T16:59:12;5.10;;;4.70;;
18661;SDS011;61528;49.456;11.098;2023-05-08T17:01:38;4.43;;;4.03;;
18661;SDS011;61528;49.456;11.098;2023-05-08T17:04:05;5.40;;;4.47;;
18661;SDS011;61528;49.456;11.098;2023-05-08T17:06:31;4.80;;;4.40;;
18661;SDS011;61528;49.456;11.098;2023-05-08T17:08:59;5.27;;;4.10;;
18661;SDS011;61528;49.456;11.098;2023-05-08T17:11:25;4.73;;;4.23;;
18661;SDS011;61528;49.456;11.098;2023-05-08T17:13:51;4.60;;;4.20;;
18661;SDS011;61528;49.456;11.098;2023-05-08T17:16:19;4.73;;;4.23;;
18661;SDS011;61528;49.456;11.098;2023-05-08T17:18:45;5.80;;;4.20;;
18661;SDS011;61528;49.456;11.098;2023-05-08T17:21:11;4.30;;;3.90;;